Time;durP1;ratioP1;P1;durP2;ratioP2;P2;SDS_P1;SDS_P2;PMS_P1;PMS_P2;Temp;Humidity;BMP_temperature;BMP_pressure;BME280_temperature;BME280_humidity;BME280_pressure;Samples;Min_cycle;Max_cycle;Signal;HPM_P1;HPM_P2
2023/12/16 00:00:57;;;;;;;11.10;2.97;;;8.60;1.00;;;;;;20753960;28;20064;-39
2023/12/16 00:10:58;;;;;;;10.88;4.60;;;8.80;1.00;;;;;;20757047;28;20252;-39
2023/12/16 00:20:58;;;;;;;10.30;2.40;;;8.70;1.00;;;;;;20759143;28;20053;-40
2023/12/16 00:30:59;;;;;;;12.15;2.28;;;8.70;1.00;;;;;;20769215;28;20042;-40
2023/12/16 00:40:59;;;;;;;9.48;2.70;;;8.70;1.00;;;;;;20763040;28;20041;-40
2023/12/16 00:51:00;;;;;;;13.70;2.25;;;8.50;1.00;;;;;;20766794;28;20033;-40
2023/12/16 01:01:00;;;;;;;8.27;2.00;;;8.50;1.00;;;;;;20766245;28;20045;-40
2023/12/16 01:11:01;;;;;;;12.63;2.13;;;8.40;1.00;;;;;;20763919;28;20538;-40
2023/12/16 01:21:06;;;;;;;12.73;2.55;;;8.30;1.00;;;;;;20765372;28;20495;-40
2023/12/16 01:31:07;;;;;;;8.75;2.03;;;8.20;1.00;;;;;;20758167;28;20406;-40
2023/12/16 01:41:08;;;;;;;13.25;2.70;;;8.10;1.00;;;;;;20760345;28;20061;-40
2023/12/16 01:51:09;;;;;;;11.65;2.33;;;8.00;1.00;;;;;;20759125;28;20034;-40
2023/12/16 02:01:10;;;;;;;18.17;3.17;;;7.90;1.00;;;;;;20754463;28;20521;-40
2023/12/16 02:11:12;;;;;;;8.63;2.90;;;7.80;1.00;;;;;;20755356;28;20840;-40
2023/12/16 02:21:12;;;;;;;13.18;3.03;;;7.70;1.00;;;;;;20755526;28;20046;-40
2023/12/16 02:31:13;;;;;;;12.57;3.03;;;7.70;1.00;;;;;;20747978;28;20052;-40
2023/12/16 02:41:14;;;;;;;13.95;3.38;;;7.70;1.00;;;;;;20751994;28;20045;-40
2023/12/16 02:51:18;;;;;;;13.95;3.38;;;7.60;1.00;;;;;;20753140;28;20091;-42
2023/12/16 03:01:19;;;;;;;13.77;4.38;;;7.70;1.00;;;;;;20745416;28;20162;-40
2023/12/16 03:11:20;;;;;;;12.85;4.20;;;7.60;1.00;;;;;;20753413;28;20029;-39
2023/12/16 03:21:20;;;;;;;15.13;4.38;;;7.60;1.00;;;;;;20743532;28;20050;-39
2023/12/16 03:31:21;;;;;;;19.42;5.20;;;7.60;1.00;;;;;;20749902;28;20030;-40
2023/12/16 03:41:21;;;;;;;11.13;3.90;;;7.60;1.00;;;;;;20749626;28;20037;-40
2023/12/16 03:51:23;;;;;;;16.23;4.07;;;7.50;1.00;;;;;;20745356;28;20792;-40
2023/12/16 04:01:23;;;;;;;15.25;4.13;;;7.60;1.00;;;;;;20757641;28;20499;-40
2023/12/16 04:11:24;;;;;;;17.42;4.60;;;7.50;1.00;;;;;;20762774;28;20465;-40
2023/12/16 04:21:24;;;;;;;11.90;4.32;;;7.40;1.80;;;;;;20762082;28;20164;-40
2023/12/16 04:31:25;;;;;;;14.80;4.28;;;7.30;6.60;;;;;;20743387;28;20095;-40
2023/12/16 04:41:26;;;;;;;21.35;5.10;;;7.20;11.60;;;;;;20751066;28;20384;-40
2023/12/16 04:51:27;;;;;;;14.20;4.90;;;7.10;16.20;;;;;;20761958;28;20374;-40
2023/12/16 05:01:27;;;;;;;19.15;5.30;;;7.30;16.00;;;;;;20758898;28;20504;-42
2023/12/16 05:11:29;;;;;;;14.73;4.05;;;7.30;17.90;;;;;;20768076;28;20038;-41
2023/12/16 05:21:30;;;;;;;14.40;4.32;;;7.30;17.30;;;;;;20763589;28;20041;-41
2023/12/16 05:31:30;;;;;;;16.63;4.53;;;7.20;24.90;;;;;;20758735;28;20049;-40
2023/12/16 05:41:31;;;;;;;14.93;4.53;;;7.20;26.50;;;;;;20762565;28;20468;-40
2023/12/16 05:51:42;;;;;;;19.02;4.30;;;7.10;30.70;;;;;;20761205;28;20417;-40
2023/12/16 06:01:42;;;;;;;21.55;4.72;;;7.10;37.10;;;;;;20762562;28;20060;-40
2023/12/16 06:11:43;;;;;;;22.20;4.07;;;7.10;43.30;;;;;;20759706;28;20312;-40
2023/12/16 06:21:44;;;;;;;21.35;4.68;;;7.10;44.90;;;;;;20758204;28;20053;-40
2023/12/16 06:31:44;;;;;;;19.17;3.80;;;7.30;42.20;;;;;;20762642;28;20041;-40
2023/12/16 06:41:45;;;;;;;18.98;4.60;;;7.20;38.90;;;;;;20761511;28;20464;-40
2023/12/16 06:51:45;;;;;;;16.92;3.67;;;7.30;48.50;;;;;;20750490;28;20536;-40
2023/12/16 07:01:46;;;;;;;25.55;3.92;;;7.20;51.10;;;;;;20751563;28;20531;-40
2023/12/16 07:11:46;;;;;;;17.25;3.72;;;7.20;50.60;;;;;;20750683;28;20037;-40
2023/12/16 07:21:47;;;;;;;16.33;4.70;;;7.10;60.20;;;;;;20751722;28;20045;-40
2023/12/16 07:31:48;;;;;;;14.45;3.97;;;7.20;51.50;;;;;;20744133;28;20588;-40
2023/12/16 07:41:48;;;;;;;15.75;4.78;;;7.20;45.70;;;;;;20740986;28;20321;-40
2023/12/16 07:51:49;;;;;;;12.52;3.35;;;7.30;40.40;;;;;;20721450;28;20369;-40
2023/12/16 08:01:50;;;;;;;14.02;3.10;;;7.30;41.20;;;;;;20749218;28;20068;-40
2023/12/16 08:11:57;;;;;;;14.75;3.70;;;7.20;45.50;;;;;;20750298;28;20371;-39
2023/12/16 08:22:01;;;;;;;13.30;3.70;;;7.20;45.60;;;;;;20744983;28;20474;-40
2023/12/16 08:32:02;;;;;;;20.83;4.80;;;7.20;49.30;;;;;;20709507;28;20131;-40
2023/12/16 08:42:02;;;;;;;18.33;4.38;;;7.40;60.40;;;;;;20732033;28;20045;-40
2023/12/16 08:52:03;;;;;;;19.98;3.70;;;7.60;66.20;;;;;;20753945;28;20041;-40
2023/12/16 09:02:05;;;;;;;18.55;4.95;;;7.60;70.60;;;;;;20756529;28;20497;-41
2023/12/16 09:12:09;;;;;;;20.45;4.55;;;7.80;73.80;;;;;;20753346;28;20048;-41
2023/12/16 09:22:09;;;;;;;21.67;4.68;;;7.90;73.70;;;;;;20753521;28;20045;-41
2023/12/16 09:32:10;;;;;;;20.60;5.60;;;8.00;79.70;;;;;;20735214;28;20116;-40
2023/12/16 09:42:12;;;;;;;17.67;5.50;;;8.10;81.90;;;;;;20736976;28;20042;-41
2023/12/16 09:52:12;;;;;;;22.98;5.90;;;8.20;96.90;;;;;;20746503;28;20091;-41
2023/12/16 10:02:23;;;;;;;24.90;7.32;;;8.60;99.90;;;;;;20749195;28;20077;-41
2023/12/16 10:12:32;;;;;;;27.50;7.45;;;8.90;99.90;;;;;;20756102;28;20110;-41
2023/12/16 10:22:33;;;;;;;23.98;9.98;;;9.10;99.90;;;;;;20747183;28;20060;-40
2023/12/16 10:32:37;;;;;;;33.50;10.43;;;9.30;99.90;;;;;;20746888;28;20038;-41
2023/12/16 10:42:37;;;;;;;33.05;11.98;;;9.30;99.90;;;;;;20737725;28;20082;-41
2023/12/16 10:52:41;;;;;;;28.90;11.80;;;9.30;99.90;;;;;;20747435;28;20356;-40
2023/12/16 11:03:03;;;;;;;28.42;12.65;;;9.40;99.90;;;;;;20747857;28;20041;-40
2023/12/16 11:13:04;;;;;;;24.38;11.68;;;9.50;99.90;;;;;;20746393;28;20516;-41
2023/12/16 11:23:05;;;;;;;21.98;10.85;;;9.30;99.90;;;;;;20738344;28;20107;-41
2023/12/16 11:33:06;;;;;;;24.30;12.55;;;9.40;99.90;;;;;;20744358;28;20033;-40
2023/12/16 11:43:06;;;;;;;20.77;11.02;;;9.40;99.90;;;;;;20750999;28;20041;-40
2023/12/16 11:53:11;;;;;;;19.50;11.32;;;9.50;99.90;;;;;;20752914;28;20068;-41
2023/12/16 12:03:12;;;;;;;19.30;10.57;;;9.50;99.90;;;;;;20750886;28;20398;-41
2023/12/16 12:13:13;;;;;;;22.10;11.55;;;9.60;99.90;;;;;;20749930;28;20464;-41
2023/12/16 12:23:13;;;;;;;19.10;10.98;;;9.60;99.90;;;;;;20762484;28;20404;-41
2023/12/16 12:33:14;;;;;;;18.80;10.65;;;9.60;99.90;;;;;;20766686;28;20053;-41
2023/12/16 12:43:26;;;;;;;21.52;9.88;;;9.70;99.90;;;;;;20761460;28;20038;-41
2023/12/16 12:53:27;;;;;;;15.02;8.05;;;9.70;99.90;;;;;;20729984;28;21154;-40
2023/12/16 13:03:30;;;;;;;10.82;6.90;;;9.70;99.90;;;;;;20760543;28;20041;-40
2023/12/16 13:13:30;;;;;;;11.65;6.25;;;9.70;99.90;;;;;;20752208;28;20033;-40
2023/12/16 13:23:31;;;;;;;11.30;4.90;;;9.80;99.90;;;;;;20754713;28;20095;-40
2023/12/16 13:33:31;;;;;;;11.73;5.07;;;9.80;99.90;;;;;;20742268;28;20045;-40
2023/12/16 13:43:32;;;;;;;12.77;4.82;;;9.80;99.90;;;;;;20743934;28;20034;-40
2023/12/16 13:53:32;;;;;;;10.75;6.65;;;9.90;99.90;;;;;;20712941;28;20049;-40
2023/12/16 14:03:33;;;;;;;13.98;8.60;;;9.90;99.90;;;;;;20751781;28;20235;-40
2023/12/16 14:13:33;;;;;;;16.77;9.73;;;9.90;99.90;;;;;;20745279;28;20144;-40
2023/12/16 14:23:34;;;;;;;18.02;10.38;;;9.90;99.90;;;;;;20754686;28;20543;-40
2023/12/16 14:33:34;;;;;;;14.88;8.93;;;9.90;99.90;;;;;;20747101;28;20060;-40
2023/12/16 14:43:37;;;;;;;15.18;9.02;;;9.90;99.90;;;;;;20740645;28;20048;-40
2023/12/16 14:53:38;;;;;;;16.38;10.05;;;10.00;99.90;;;;;;20746289;28;20524;-40
2023/12/16 15:03:39;;;;;;;16.20;9.40;;;10.00;99.90;;;;;;20746901;28;20425;-40
2023/12/16 15:13:40;;;;;;;16.77;10.00;;;10.10;99.90;;;;;;20752915;28;20385;-41
2023/12/16 15:23:40;;;;;;;15.23;8.30;;;10.10;99.90;;;;;;20750680;28;20460;-40
2023/12/16 15:33:42;;;;;;;12.55;7.13;;;10.20;99.90;;;;;;20763810;28;20848;-40
2023/12/16 15:43:44;;;;;;;11.37;6.93;;;10.20;99.90;;;;;;20744140;28;20060;-40
2023/12/16 15:53:44;;;;;;;12.63;7.20;;;10.20;99.90;;;;;;20743224;28;20501;-41
2023/12/16 16:03:45;;;;;;;10.65;7.03;;;10.20;99.90;;;;;;20741478;28;20501;-40
2023/12/16 16:13:45;;;;;;;11.68;6.78;;;10.30;99.90;;;;;;20741627;28;20477;-41
2023/12/16 16:23:46;;;;;;;10.70;6.88;;;10.20;99.90;;;;;;20738662;28;20049;-40
2023/12/16 16:33:46;;;;;;;14.23;8.95;;;10.30;99.90;;;;;;20740452;28;20119;-41
2023/12/16 16:43:47;;;;;;;20.73;12.23;;;10.40;99.90;;;;;;20752267;28;20046;-40
2023/12/16 16:53:48;;;;;;;22.50;13.77;;;10.30;99.90;;;;;;20748462;28;20382;-41
2023/12/16 17:03:48;;;;;;;19.73;11.75;;;10.30;99.90;;;;;;20742972;28;20100;-41
2023/12/16 17:13:49;;;;;;;14.80;8.50;;;10.50;99.90;;;;;;20761682;28;20497;-40
2023/12/16 17:23:50;;;;;;;22.10;11.32;;;10.50;99.90;;;;;;20760792;28;20401;-40
2023/12/16 17:33:51;;;;;;;22.90;13.68;;;10.60;99.90;;;;;;20757201;28;20494;-40
2023/12/16 17:43:51;;;;;;;26.65;14.70;;;10.60;99.90;;;;;;20757718;28;20067;-40
2023/12/16 17:53:52;;;;;;;27.25;15.88;;;10.60;99.90;;;;;;20756437;28;20045;-40
2023/12/16 18:03:57;;;;;;;24.85;13.98;;;10.60;99.90;;;;;;20758933;28;20064;-40
2023/12/16 18:13:57;;;;;;;16.02;9.30;;;10.60;99.90;;;;;;20753350;28;20041;-40
2023/12/16 18:23:59;;;;;;;18.83;11.90;;;10.70;99.90;;;;;;20757539;28;20572;-40
2023/12/16 18:33:59;;;;;;;15.13;9.50;;;10.90;99.90;;;;;;20760852;28;20549;-41
2023/12/16 18:44:00;;;;;;;15.43;8.70;;;10.90;99.90;;;;;;20758649;28;20037;-40
2023/12/16 18:54:00;;;;;;;10.70;7.97;;;10.90;99.90;;;;;;20761481;28;20117;-40
2023/12/16 19:04:01;;;;;;;13.43;7.85;;;10.90;99.90;;;;;;20754202;28;21133;-40
2023/12/16 19:14:02;;;;;;;14.55;11.18;;;10.90;99.90;;;;;;20758369;28;20177;-40
2023/12/16 19:24:03;;;;;;;16.83;11.60;;;11.00;99.90;;;;;;20720222;28;20679;-40
2023/12/16 19:34:04;;;;;;;17.35;11.48;;;11.00;99.90;;;;;;20748740;28;20208;-40
2023/12/16 19:44:04;;;;;;;16.27;10.52;;;10.90;99.90;;;;;;20754356;28;20193;-40
2023/12/16 19:54:05;;;;;;;14.77;9.48;;;10.90;99.90;;;;;;20754922;28;20052;-40
2023/12/16 20:04:06;;;;;;;17.80;11.35;;;11.00;99.90;;;;;;20747953;28;20033;-40
2023/12/16 20:14:07;;;;;;;17.88;11.07;;;10.90;99.90;;;;;;20751631;28;20801;-41
2023/12/16 20:24:07;;;;;;;18.70;11.52;;;10.90;99.90;;;;;;20750748;28;20565;-41
2023/12/16 20:34:08;;;;;;;20.50;11.27;;;10.90;99.90;;;;;;20748849;28;20046;-40
2023/12/16 20:44:09;;;;;;;19.73;12.23;;;11.00;99.90;;;;;;20762029;28;20076;-40
2023/12/16 20:54:09;;;;;;;20.00;11.13;;;10.90;99.90;;;;;;20763966;28;20884;-40
2023/12/16 21:04:11;;;;;;;13.83;8.23;;;10.90;99.90;;;;;;20759420;28;20037;-40
2023/12/16 21:14:11;;;;;;;12.25;6.95;;;11.00;99.90;;;;;;20761018;28;20464;-40
2023/12/16 21:24:12;;;;;;;15.38;5.68;;;11.00;99.90;;;;;;20757847;28;20061;-40
2023/12/16 21:34:13;;;;;;;10.98;4.25;;;11.00;99.90;;;;;;20757300;28;20033;-40
2023/12/16 21:44:13;;;;;;;14.27;5.72;;;11.00;99.90;;;;;;20755655;28;20056;-40
2023/12/16 21:54:14;;;;;;;9.25;3.97;;;10.90;99.90;;;;;;20745441;28;20044;-40
2023/12/16 22:04:14;;;;;;;7.47;4.07;;;10.90;99.90;;;;;;20758028;28;20048;-40
2023/12/16 22:14:15;;;;;;;14.32;4.22;;;10.90;99.90;;;;;;20754081;28;20390;-40
2023/12/16 22:24:15;;;;;;;15.35;4.93;;;11.00;99.90;;;;;;20759409;28;20573;-40
2023/12/16 22:34:16;;;;;;;11.63;5.00;;;10.90;99.90;;;;;;20757310;28;20489;-40
2023/12/16 22:44:16;;;;;;;11.48;5.93;;;10.90;99.90;;;;;;20749356;28;20520;-40
2023/12/16 22:54:17;;;;;;;14.80;5.97;;;11.00;99.90;;;;;;20749518;28;20446;-40
2023/12/16 23:04:17;;;;;;;9.40;4.10;;;11.10;99.90;;;;;;20747102;28;20111;-40
2023/12/16 23:14:18;;;;;;;12.07;3.80;;;11.10;98.00;;;;;;20744600;28;20057;-41
2023/12/16 23:24:19;;;;;;;8.43;3.63;;;10.90;97.90;;;;;;20745905;28;20046;-40
2023/12/16 23:34:20;;;;;;;7.72;3.67;;;11.10;95.10;;;;;;20749523;28;20274;-40
2023/12/16 23:44:21;;;;;;;9.40;3.80;;;11.00;97.30;;;;;;20747758;28;20068;-41
2023/12/16 23:54:22;;;;;;;12.10;4.28;;;10.90;97.90;;;;;;20746145;28;20029;-40
